PWSweather.com
Personal Weather Stations
Station Observations
KMOHERMA2
Stony Hill, Hermann, MO 65041

Stony HillHermann, MO 65041

Lat: 38.527, Lon: -91.414

Elevation: 896

Station Type: Davis Vantage Pro 2

High Low Average
Temperature 62.0°F16.7°C 45.1°F7.3°C 51.6°F10.9°C
Dew Point 53.2°F11.8°C 37.4°F3.0°C 44.8°F7.1°C
Winds 15.0 mph 24.1 kmh Calm Calm Calm SCalm S
Wind Gusts 20.0 mph32.2 kmh -- 1.0 mph1.6 kmh
Humidity 96% 59% 79%
Pressure 29.62 in1003.0 mb 29.18 in988.1 mb -
Precipitation 0.71 in18.0 mm - -
Hour Temp Dew Point Humidity Winds Wind Gusts Pressure Precip Precip Rate Daily Precip Total
12:00 AM 44.8°F7.1°C 43.5°F6.4°C 95% 8.0 mph ESE12.9 kmh ESE -- 29.68 in1005.1 mb 0.00 in0.0 mm 0.00 in0.0 mm 0.00 in0.0 mm
12:05 AM 44.9°F7.2°C 43.7°F6.5°C 95% 7.0 mph SE11.3 kmh SE -- 29.67 in1004.7 mb 0.01 in0.3 mm 0.12 in3.0 mm 0.01 in0.3 mm
12:10 AM 44.9°F7.2°C 43.7°F6.5°C 95% 9.0 mph E14.5 kmh E 20.0 mph32.2 kmh 29.67 in1004.7 mb 0.01 in0.3 mm 0.00 in0.0 mm 0.01 in0.3 mm
12:15 AM 45.0°F7.2°C 43.9°F6.6°C 96% 11.0 mph E17.7 kmh E -- 29.66 in1004.4 mb 0.01 in0.3 mm 0.00 in0.0 mm 0.01 in0.3 mm
12:20 AM 45.0°F7.2°C 43.9°F6.6°C 96% 3.0 mph E4.8 kmh E -- 29.65 in1004.1 mb 0.01 in0.3 mm 0.00 in0.0 mm 0.01 in0.3 mm
12:25 AM 45.1°F7.3°C 44.1°F6.7°C 96% 2.0 mph E3.2 kmh E -- 29.65 in1004.1 mb 0.01 in0.3 mm 0.00 in0.0 mm 0.01 in0.3 mm
12:30 AM 45.1°F7.3°C 44.1°F6.7°C 96% Calm Calm -- 29.64 in1003.7 mb 0.01 in0.3 mm 0.00 in0.0 mm 0.01 in0.3 mm
12:35 AM 45.1°F7.3°C 44.1°F6.7°C 96% Calm Calm 12.0 mph19.3 kmh 29.64 in1003.7 mb 0.01 in0.3 mm 0.00 in0.0 mm 0.01 in0.3 mm
12:40 AM 45.2°F7.3°C 44.1°F6.7°C 96% 12.0 mph E19.3 kmh E -- 29.64 in1003.7 mb 0.01 in0.3 mm 0.00 in0.0 mm 0.01 in0.3 mm
12:45 AM 45.2°F7.3°C 44.1°F6.7°C 96% 10.0 mph ESE16.1 kmh ESE -- 29.65 in1004.1 mb 0.01 in0.3 mm 0.00 in0.0 mm 0.01 in0.3 mm
12:50 AM 45.2°F7.3°C 44.1°F6.7°C 96% 5.0 mph E8.0 kmh E -- 29.65 in1004.1 mb 0.01 in0.3 mm 0.00 in0.0 mm 0.01 in0.3 mm
12:55 AM 45.3°F7.4°C 44.2°F6.8°C 96% 5.0 mph E8.0 kmh E -- 29.64 in1003.7 mb 0.01 in0.3 mm 0.00 in0.0 mm 0.01 in0.3 mm
01:00 AM 45.3°F7.4°C 44.1°F6.7°C 95% 5.0 mph E8.0 kmh E 15.0 mph24.1 kmh 29.62 in1003.0 mb 0.01 in0.3 mm 0.00 in0.0 mm 0.01 in0.3 mm
01:05 AM 45.2°F7.3°C 44.1°F6.7°C 96% 9.0 mph E14.5 kmh E -- 29.61 in1002.7 mb 0.00 in0.0 mm 0.00 in0.0 mm 0.01 in0.3 mm
01:10 AM 45.2°F7.3°C 44.1°F6.7°C 96% Calm Calm -- 29.60 in1002.4 mb 0.00 in0.0 mm 0.00 in0.0 mm 0.01 in0.3 mm
01:15 AM 45.2°F7.3°C 44.1°F6.7°C 96% Calm Calm -- 29.60 in1002.4 mb 0.00 in0.0 mm 0.00 in0.0 mm 0.01 in0.3 mm
01:20 AM 45.1°F7.3°C 44.1°F6.7°C 96% 3.0 mph E4.8 kmh E -- 29.59 in1002.0 mb 0.00 in0.0 mm 0.00 in0.0 mm 0.01 in0.3 mm
01:25 AM 45.1°F7.3°C 44.1°F6.7°C 96% 2.0 mph E3.2 kmh E 11.0 mph17.7 kmh 29.58 in1001.7 mb 0.00 in0.0 mm 0.00 in0.0 mm 0.01 in0.3 mm
01:30 AM 45.2°F7.3°C 44.1°F6.7°C 96% 1.0 mph E1.6 kmh E -- 29.57 in1001.4 mb 0.00 in0.0 mm 0.00 in0.0 mm 0.01 in0.3 mm
01:35 AM 45.3°F7.4°C 44.2°F6.8°C 96% Calm Calm -- 29.56 in1001.0 mb 0.00 in0.0 mm 0.00 in0.0 mm 0.01 in0.3 mm
01:40 AM 45.3°F7.4°C 44.2°F6.8°C 96% Calm Calm -- 29.52 in999.7 mb 0.00 in0.0 mm 0.00 in0.0 mm 0.01 in0.3 mm
01:45 AM 45.2°F7.3°C 44.1°F6.7°C 96% Calm Calm -- 29.53 in1000.0 mb 0.02 in0.5 mm 0.24 in6.1 mm 0.02 in0.5 mm
01:50 AM 45.3°F7.4°C 44.2°F6.8°C 96% Calm Calm 11.0 mph17.7 kmh 29.55 in1000.7 mb 0.04 in1.0 mm 0.24 in6.1 mm 0.04 in1.0 mm
01:55 AM 45.4°F7.4°C 44.1°F6.7°C 95% Calm Calm -- 29.58 in1001.7 mb 0.04 in1.0 mm 0.00 in0.0 mm 0.04 in1.0 mm
02:00 AM 45.6°F7.6°C 44.6°F7.0°C 96% Calm Calm -- 29.57 in1001.4 mb 0.05 in1.3 mm 0.01 in0.3 mm 0.05 in1.3 mm
02:05 AM 45.7°F7.6°C 44.6°F7.0°C 96% Calm Calm -- 29.55 in1000.7 mb 0.08 in2.0 mm 0.36 in9.1 mm 0.08 in2.0 mm
02:10 AM 45.7°F7.6°C 44.6°F7.0°C 96% Calm Calm -- 29.57 in1001.4 mb 0.10 in2.5 mm 0.24 in6.1 mm 0.10 in2.5 mm
02:15 AM 45.7°F7.6°C 44.6°F7.0°C 96% Calm Calm -- 29.58 in1001.7 mb 0.11 in2.8 mm 0.12 in3.0 mm 0.11 in2.8 mm
02:20 AM 45.8°F7.7°C 44.8°F7.1°C 96% Calm Calm -- 29.57 in1001.4 mb 0.12 in3.0 mm 0.12 in3.0 mm 0.12 in3.0 mm
02:25 AM 45.8°F7.7°C 44.8°F7.1°C 96% 1.0 mph E1.6 kmh E -- 29.56 in1001.0 mb 0.13 in3.3 mm 0.12 in3.0 mm 0.13 in3.3 mm
02:30 AM 45.9°F7.7°C 44.8°F7.1°C 96% 5.0 mph ENE8.0 kmh ENE -- 29.52 in999.7 mb 0.14 in3.6 mm 0.12 in3.0 mm 0.14 in3.6 mm
02:35 AM 45.9°F7.7°C 44.8°F7.1°C 96% Calm Calm -- 29.50 in999.0 mb 0.15 in3.8 mm 0.12 in3.0 mm 0.15 in3.8 mm
02:40 AM 46.0°F7.8°C 45.0°F7.2°C 96% Calm Calm 9.0 mph14.5 kmh 29.51 in999.3 mb 0.17 in4.3 mm 0.24 in6.1 mm 0.17 in4.3 mm
02:45 AM 46.0°F7.8°C 45.0°F7.2°C 96% 1.0 mph E1.6 kmh E -- 29.50 in999.0 mb 0.17 in4.3 mm 0.00 in0.0 mm 0.19 in4.8 mm
02:50 AM 46.1°F7.8°C 45.0°F7.2°C 96% 2.0 mph E3.2 kmh E -- 29.51 in999.3 mb 0.16 in4.1 mm 0.00 in0.0 mm 0.20 in5.1 mm
02:55 AM 46.1°F7.8°C 45.0°F7.2°C 96% 6.0 mph E9.7 kmh E -- 29.49 in998.6 mb 0.16 in4.1 mm 0.00 in0.0 mm 0.20 in5.1 mm
03:00 AM 46.1°F7.8°C 45.0°F7.2°C 96% 3.0 mph ENE4.8 kmh ENE -- 29.46 in997.6 mb 0.16 in4.1 mm 0.00 in0.0 mm 0.21 in5.3 mm
03:05 AM 46.1°F7.8°C 45.0°F7.2°C 96% 15.0 mph E24.1 kmh E 20.0 mph32.2 kmh 29.48 in998.3 mb 0.14 in3.6 mm 0.00 in0.0 mm 0.22 in5.6 mm
03:10 AM 46.1°F7.8°C 45.0°F7.2°C 96% 6.0 mph ENE9.7 kmh ENE -- 29.47 in998.0 mb 0.15 in3.8 mm 0.12 in3.0 mm 0.24 in6.1 mm
03:15 AM 46.0°F7.8°C 45.0°F7.2°C 96% 4.0 mph E6.4 kmh E -- 29.45 in997.3 mb 0.14 in3.6 mm 0.00 in0.0 mm 0.25 in6.4 mm
03:20 AM 45.9°F7.7°C 44.8°F7.1°C 96% 4.0 mph NE6.4 kmh NE -- 29.44 in997.0 mb 0.14 in3.6 mm 0.00 in0.0 mm 0.26 in6.6 mm
03:25 AM 45.8°F7.7°C 44.8°F7.1°C 96% Calm Calm -- 29.44 in997.0 mb 0.14 in3.6 mm 0.00 in0.0 mm 0.27 in6.9 mm
03:30 AM 45.8°F7.7°C 44.8°F7.1°C 96% Calm Calm 12.0 mph19.3 kmh 29.47 in998.0 mb 0.14 in3.6 mm 0.00 in0.0 mm 0.28 in7.1 mm
03:35 AM 45.8°F7.7°C 44.8°F7.1°C 96% 5.0 mph E8.0 kmh E -- 29.48 in998.3 mb 0.14 in3.6 mm 0.00 in0.0 mm 0.29 in7.4 mm
03:40 AM 45.9°F7.7°C 44.8°F7.1°C 96% Calm Calm -- 29.46 in997.6 mb 0.14 in3.6 mm 0.00 in0.0 mm 0.31 in7.9 mm
03:45 AM 45.9°F7.7°C 44.8°F7.1°C 96% Calm Calm -- 29.44 in997.0 mb 0.14 in3.6 mm 0.00 in0.0 mm 0.33 in8.4 mm
03:50 AM 46.0°F7.8°C 45.0°F7.2°C 96% Calm Calm -- 29.42 in996.3 mb 0.15 in3.8 mm 0.12 in3.0 mm 0.35 in8.9 mm
03:55 AM 46.0°F7.8°C 45.0°F7.2°C 96% Calm Calm 2.0 mph3.2 kmh 29.42 in996.3 mb 0.17 in4.3 mm 0.24 in6.1 mm 0.37 in9.4 mm
04:00 AM 46.0°F7.8°C 45.0°F7.2°C 96% Calm Calm -- 29.42 in996.3 mb 0.17 in4.3 mm 0.00 in0.0 mm 0.38 in9.7 mm
04:05 AM 46.0°F7.8°C 45.0°F7.2°C 96% Calm Calm -- 29.40 in995.6 mb 0.17 in4.3 mm 0.00 in0.0 mm 0.39 in9.9 mm
04:10 AM 46.1°F7.8°C 45.0°F7.2°C 96% Calm Calm -- 29.40 in995.6 mb 0.18 in4.6 mm 0.12 in3.0 mm 0.42 in10.7 mm
04:15 AM 46.1°F7.8°C 45.0°F7.2°C 96% Calm Calm -- 29.40 in995.6 mb 0.19 in4.8 mm 0.12 in3.0 mm 0.44 in11.2 mm
04:20 AM 46.2°F7.9°C 45.1°F7.3°C 96% Calm Calm 1.0 mph1.6 kmh 29.39 in995.3 mb 0.22 in5.6 mm 0.36 in9.1 mm 0.48 in12.2 mm
04:25 AM 46.3°F7.9°C 45.1°F7.3°C 96% Calm Calm -- 29.39 in995.3 mb 0.22 in5.6 mm 0.00 in0.0 mm 0.49 in12.4 mm
04:30 AM 46.3°F7.9°C 45.1°F7.3°C 96% Calm Calm -- 29.38 in994.9 mb 0.24 in6.1 mm 0.24 in6.1 mm 0.52 in13.2 mm
04:35 AM 46.4°F8.0°C 45.3°F7.4°C 96% Calm Calm -- 29.40 in995.6 mb 0.25 in6.4 mm 0.12 in3.0 mm 0.54 in13.7 mm
04:40 AM 46.8°F8.2°C 45.7°F7.6°C 96% Calm Calm -- 29.49 in998.6 mb 0.36 in9.1 mm 1.32 in33.5 mm 0.67 in17.0 mm
04:45 AM 47.2°F8.4°C 46.0°F7.8°C 96% Calm Calm 1.0 mph1.6 kmh 29.46 in997.6 mb 0.36 in9.1 mm 0.00 in0.0 mm 0.69 in17.5 mm
04:50 AM 47.3°F8.5°C 46.2°F7.9°C 96% Calm Calm -- 29.45 in997.3 mb 0.35 in8.9 mm 0.00 in0.0 mm 0.70 in17.8 mm
04:55 AM 47.3°F8.5°C 46.2°F7.9°C 96% Calm Calm -- 29.45 in997.3 mb 0.33 in8.4 mm 0.00 in0.0 mm 0.70 in17.8 mm
05:00 AM 47.3°F8.5°C 46.2°F7.9°C 96% Calm Calm -- 29.44 in997.0 mb 0.33 in8.4 mm 0.00 in0.0 mm 0.71 in18.0 mm
05:05 AM 47.2°F8.4°C 46.0°F7.8°C 96% Calm Calm -- 29.41 in995.9 mb 0.32 in8.1 mm 0.00 in0.0 mm 0.71 in18.0 mm
05:10 AM 47.1°F8.4°C 46.0°F7.8°C 96% Calm Calm -- 29.39 in995.3 mb 0.29 in7.4 mm 0.00 in0.0 mm 0.71 in18.0 mm
05:15 AM 47.1°F8.4°C 46.0°F7.8°C 96% Calm Calm -- 29.36 in994.2 mb 0.27 in6.9 mm 0.00 in0.0 mm 0.71 in18.0 mm
05:20 AM 47.1°F8.4°C 46.0°F7.8°C 96% Calm Calm -- 29.39 in995.3 mb 0.23 in5.8 mm 0.00 in0.0 mm 0.71 in18.0 mm
05:25 AM 47.3°F8.5°C 46.2°F7.9°C 96% Calm Calm -- 29.37 in994.6 mb 0.22 in5.6 mm 0.00 in0.0 mm 0.71 in18.0 mm
05:30 AM 47.4°F8.6°C 46.4°F8.0°C 96% Calm Calm -- 29.35 in993.9 mb 0.19 in4.8 mm 0.00 in0.0 mm 0.71 in18.0 mm
05:35 AM 47.3°F8.5°C 46.2°F7.9°C 96% Calm Calm -- 29.29 in991.9 mb 0.17 in4.3 mm 0.00 in0.0 mm 0.71 in18.0 mm
05:40 AM 47.4°F8.6°C 46.4°F8.0°C 96% Calm Calm -- 29.30 in992.2 mb 0.05 in1.3 mm 0.00 in0.0 mm 0.71 in18.0 mm
05:45 AM 47.4°F8.6°C 46.4°F8.0°C 96% Calm Calm -- 29.30 in992.2 mb 0.02 in0.5 mm 0.00 in0.0 mm 0.71 in18.0 mm
05:50 AM 47.4°F8.6°C 46.4°F8.0°C 96% Calm Calm -- 29.30 in992.2 mb 0.01 in0.3 mm 0.00 in0.0 mm 0.71 in18.0 mm
05:55 AM 47.4°F8.6°C 46.4°F8.0°C 96% Calm Calm -- 29.30 in992.2 mb 0.01 in0.3 mm 0.00 in0.0 mm 0.71 in18.0 mm
06:00 AM 47.4°F8.6°C 46.4°F8.0°C 96% Calm Calm -- 29.30 in992.2 mb 0.00 in0.0 mm 0.00 in0.0 mm 0.71 in18.0 mm
06:05 AM 47.4°F8.6°C 46.4°F8.0°C 96% Calm Calm -- 29.31 in992.6 mb 0.00 in0.0 mm 0.00 in0.0 mm 0.71 in18.0 mm
06:10 AM 47.4°F8.6°C 46.4°F8.0°C 96% Calm Calm -- 29.31 in992.6 mb 0.00 in0.0 mm 0.00 in0.0 mm 0.71 in18.0 mm
06:15 AM 47.3°F8.5°C 46.2°F7.9°C 96% Calm Calm -- 29.31 in992.6 mb 0.00 in0.0 mm 0.00 in0.0 mm 0.71 in18.0 mm
06:20 AM 47.2°F8.4°C 46.0°F7.8°C 96% Calm Calm -- 29.31 in992.6 mb 0.00 in0.0 mm 0.00 in0.0 mm 0.71 in18.0 mm
06:25 AM 47.0°F8.3°C 45.9°F7.7°C 96% Calm Calm -- 29.32 in992.9 mb 0.00 in0.0 mm 0.00 in0.0 mm 0.71 in18.0 mm
06:30 AM 47.0°F8.3°C 45.9°F7.7°C 96% Calm Calm -- 29.32 in992.9 mb 0.00 in0.0 mm 0.00 in0.0 mm 0.71 in18.0 mm
06:35 AM 47.0°F8.3°C 45.9°F7.7°C 96% Calm Calm -- 29.32 in992.9 mb 0.00 in0.0 mm 0.00 in0.0 mm 0.71 in18.0 mm
06:40 AM 47.0°F8.3°C 45.9°F7.7°C 96% Calm Calm -- 29.33 in993.2 mb 0.00 in0.0 mm 0.00 in0.0 mm 0.71 in18.0 mm
06:45 AM 47.2°F8.4°C 46.0°F7.8°C 96% Calm Calm -- 29.33 in993.2 mb 0.00 in0.0 mm 0.00 in0.0 mm 0.71 in18.0 mm
06:50 AM 47.4°F8.6°C 46.4°F8.0°C 96% Calm Calm -- 29.34 in993.6 mb 0.00 in0.0 mm 0.00 in0.0 mm 0.71 in18.0 mm
06:55 AM 47.5°F8.6°C 46.4°F8.0°C 96% Calm Calm -- 29.34 in993.6 mb 0.00 in0.0 mm 0.00 in0.0 mm 0.71 in18.0 mm
07:00 AM 47.7°F8.7°C 46.6°F8.1°C 96% Calm Calm -- 29.34 in993.6 mb 0.00 in0.0 mm 0.00 in0.0 mm 0.71 in18.0 mm
07:05 AM 47.6°F8.7°C 46.6°F8.1°C 96% Calm Calm -- 29.34 in993.6 mb 0.00 in0.0 mm 0.00 in0.0 mm 0.71 in18.0 mm
07:10 AM 47.6°F8.7°C 46.6°F8.1°C 96% Calm Calm -- 29.34 in993.6 mb 0.00 in0.0 mm 0.00 in0.0 mm 0.71 in18.0 mm
07:15 AM 47.5°F8.6°C 46.4°F8.0°C 96% Calm Calm -- 29.34 in993.6 mb 0.00 in0.0 mm 0.00 in0.0 mm 0.71 in18.0 mm
07:20 AM 47.3°F8.5°C 46.2°F7.9°C 96% Calm Calm -- 29.34 in993.6 mb 0.00 in0.0 mm 0.00 in0.0 mm 0.71 in18.0 mm
07:25 AM 47.1°F8.4°C 46.0°F7.8°C 96% Calm Calm -- 29.34 in993.6 mb 0.00 in0.0 mm 0.00 in0.0 mm 0.71 in18.0 mm
07:30 AM 47.0°F8.3°C 45.9°F7.7°C 96% Calm Calm -- 29.34 in993.6 mb 0.00 in0.0 mm 0.00 in0.0 mm 0.71 in18.0 mm
07:35 AM 46.8°F8.2°C 45.7°F7.6°C 96% Calm Calm -- 29.33 in993.2 mb 0.00 in0.0 mm 0.00 in0.0 mm 0.71 in18.0 mm
07:40 AM 46.6°F8.1°C 45.5°F7.5°C 96% Calm Calm -- 29.33 in993.2 mb 0.00 in0.0 mm 0.00 in0.0 mm 0.71 in18.0 mm
07:45 AM 46.5°F8.1°C 45.5°F7.5°C 96% Calm Calm -- 29.33 in993.2 mb 0.00 in0.0 mm 0.00 in0.0 mm 0.71 in18.0 mm
07:50 AM 46.4°F8.0°C 45.3°F7.4°C 96% Calm Calm -- 29.33 in993.2 mb 0.00 in0.0 mm 0.00 in0.0 mm 0.71 in18.0 mm
07:55 AM 46.3°F7.9°C 45.1°F7.3°C 96% Calm Calm -- 29.33 in993.2 mb 0.00 in0.0 mm 0.00 in0.0 mm 0.71 in18.0 mm
08:00 AM 46.1°F7.8°C 45.0°F7.2°C 96% Calm Calm -- 29.33 in993.2 mb 0.00 in0.0 mm 0.00 in0.0 mm 0.71 in18.0 mm
08:05 AM 46.0°F7.8°C 45.0°F7.2°C 96% Calm Calm -- 29.33 in993.2 mb 0.00 in0.0 mm 0.00 in0.0 mm 0.71 in18.0 mm
08:10 AM 46.0°F7.8°C 45.0°F7.2°C 96% Calm Calm -- 29.33 in993.2 mb 0.00 in0.0 mm 0.00 in0.0 mm 0.71 in18.0 mm
08:15 AM 46.0°F7.8°C 45.0°F7.2°C 96% Calm Calm -- 29.33 in993.2 mb 0.00 in0.0 mm 0.00 in0.0 mm 0.71 in18.0 mm
08:20 AM 45.9°F7.7°C 44.8°F7.1°C 96% Calm Calm -- 29.33 in993.2 mb 0.00 in0.0 mm 0.00 in0.0 mm 0.71 in18.0 mm
08:25 AM 45.8°F7.7°C 44.8°F7.1°C 96% Calm Calm -- 29.32 in992.9 mb 0.00 in0.0 mm 0.00 in0.0 mm 0.71 in18.0 mm
08:30 AM 45.8°F7.7°C 44.8°F7.1°C 96% Calm Calm 2.0 mph3.2 kmh 29.32 in992.9 mb 0.00 in0.0 mm 0.00 in0.0 mm 0.71 in18.0 mm
08:35 AM 45.7°F7.6°C 44.6°F7.0°C 96% Calm Calm -- 29.32 in992.9 mb 0.00 in0.0 mm 0.00 in0.0 mm 0.71 in18.0 mm
08:40 AM 45.9°F7.7°C 44.8°F7.1°C 96% Calm Calm -- 29.33 in993.2 mb 0.00 in0.0 mm 0.00 in0.0 mm 0.71 in18.0 mm
08:45 AM 46.1°F7.8°C 45.0°F7.2°C 96% Calm Calm -- 29.33 in993.2 mb 0.00 in0.0 mm 0.00 in0.0 mm 0.71 in18.0 mm
08:50 AM 46.3°F7.9°C 45.1°F7.3°C 96% Calm Calm -- 29.32 in992.9 mb 0.00 in0.0 mm 0.00 in0.0 mm 0.71 in18.0 mm
08:55 AM 46.5°F8.1°C 45.5°F7.5°C 96% Calm Calm -- 29.32 in992.9 mb 0.00 in0.0 mm 0.00 in0.0 mm 0.71 in18.0 mm
09:00 AM 46.7°F8.2°C 45.7°F7.6°C 96% Calm Calm -- 29.32 in992.9 mb 0.00 in0.0 mm 0.00 in0.0 mm 0.71 in18.0 mm
09:05 AM 46.8°F8.2°C 45.7°F7.6°C 96% Calm Calm -- 29.32 in992.9 mb 0.00 in0.0 mm 0.00 in0.0 mm 0.71 in18.0 mm
09:10 AM 47.1°F8.4°C 46.0°F7.8°C 96% Calm Calm -- 29.32 in992.9 mb 0.00 in0.0 mm 0.00 in0.0 mm 0.71 in18.0 mm
09:15 AM 47.3°F8.5°C 46.2°F7.9°C 96% Calm Calm -- 29.32 in992.9 mb 0.00 in0.0 mm 0.00 in0.0 mm 0.71 in18.0 mm
09:20 AM 47.6°F8.7°C 46.6°F8.1°C 96% Calm Calm -- 29.31 in992.6 mb 0.00 in0.0 mm 0.00 in0.0 mm 0.71 in18.0 mm
09:25 AM 47.9°F8.8°C 46.8°F8.2°C 96% Calm Calm -- 29.31 in992.6 mb 0.00 in0.0 mm 0.00 in0.0 mm 0.71 in18.0 mm
09:30 AM 48.1°F8.9°C 46.9°F8.3°C 96% Calm Calm -- 29.31 in992.6 mb 0.00 in0.0 mm 0.00 in0.0 mm 0.71 in18.0 mm
09:35 AM 48.4°F9.1°C 47.3°F8.5°C 96% Calm Calm -- 29.31 in992.6 mb 0.00 in0.0 mm 0.00 in0.0 mm 0.71 in18.0 mm
09:40 AM 48.7°F9.3°C 47.7°F8.7°C 96% Calm Calm -- 29.31 in992.6 mb 0.00 in0.0 mm 0.00 in0.0 mm 0.71 in18.0 mm
09:45 AM 49.0°F9.4°C 47.8°F8.8°C 96% Calm Calm -- 29.31 in992.6 mb 0.00 in0.0 mm 0.00 in0.0 mm 0.71 in18.0 mm
09:50 AM 49.4°F9.7°C 48.4°F9.1°C 96% Calm Calm -- 29.31 in992.6 mb 0.00 in0.0 mm 0.00 in0.0 mm 0.71 in18.0 mm
09:55 AM 49.7°F9.8°C 48.6°F9.2°C 96% Calm Calm -- 29.30 in992.2 mb 0.00 in0.0 mm 0.00 in0.0 mm 0.71 in18.0 mm
10:00 AM 50.1°F10.1°C 49.1°F9.5°C 96% Calm Calm -- 29.30 in992.2 mb 0.00 in0.0 mm 0.00 in0.0 mm 0.71 in18.0 mm
10:05 AM 50.5°F10.3°C 49.1°F9.5°C 95% Calm Calm -- 29.30 in992.2 mb 0.00 in0.0 mm 0.00 in0.0 mm 0.71 in18.0 mm
10:10 AM 50.9°F10.5°C 49.5°F9.7°C 95% 7.0 mph SSE11.3 kmh SSE 11.0 mph17.7 kmh 29.30 in992.2 mb 0.00 in0.0 mm 0.00 in0.0 mm 0.71 in18.0 mm
10:15 AM 51.3°F10.7°C 49.6°F9.8°C 94% Calm Calm -- 29.30 in992.2 mb 0.00 in0.0 mm 0.00 in0.0 mm 0.71 in18.0 mm
10:20 AM 51.7°F10.9°C 50.0°F10.0°C 94% Calm Calm -- 29.30 in992.2 mb 0.00 in0.0 mm 0.00 in0.0 mm 0.71 in18.0 mm
10:25 AM 52.1°F11.2°C 50.2°F10.1°C 93% Calm Calm -- 29.30 in992.2 mb 0.00 in0.0 mm 0.00 in0.0 mm 0.71 in18.0 mm
10:30 AM 52.5°F11.4°C 50.2°F10.1°C 92% 4.0 mph S6.4 kmh S -- 29.30 in992.2 mb 0.00 in0.0 mm 0.00 in0.0 mm 0.71 in18.0 mm
10:35 AM 53.0°F11.7°C 50.5°F10.3°C 91% 3.0 mph S4.8 kmh S 13.0 mph20.9 kmh 29.30 in992.2 mb 0.00 in0.0 mm 0.00 in0.0 mm 0.71 in18.0 mm
10:40 AM 53.5°F11.9°C 50.9°F10.5°C 91% 3.0 mph S4.8 kmh S -- 29.30 in992.2 mb 0.00 in0.0 mm 0.00 in0.0 mm 0.71 in18.0 mm
10:45 AM 53.8°F12.1°C 50.9°F10.5°C 90% 5.0 mph S8.0 kmh S -- 29.29 in991.9 mb 0.00 in0.0 mm 0.00 in0.0 mm 0.71 in18.0 mm
10:50 AM 54.3°F12.4°C 51.1°F10.6°C 89% 6.0 mph SSE9.7 kmh SSE -- 29.29 in991.9 mb 0.00 in0.0 mm 0.00 in0.0 mm 0.71 in18.0 mm
10:55 AM 54.7°F12.6°C 51.3°F10.7°C 88% 4.0 mph SSE6.4 kmh SSE -- 29.29 in991.9 mb 0.00 in0.0 mm 0.00 in0.0 mm 0.71 in18.0 mm
11:01 AM 55.0°F12.8°C 50.9°F10.5°C 86% 13.0 mph SSE20.9 kmh SSE 16.0 mph25.7 kmh 29.29 in991.9 mb 0.00 in0.0 mm 0.00 in0.0 mm 0.71 in18.0 mm
11:05 AM 55.5°F13.1°C 51.4°F10.8°C 86% Calm Calm -- 29.29 in991.9 mb 0.00 in0.0 mm 0.00 in0.0 mm 0.71 in18.0 mm
11:10 AM 56.0°F13.3°C 51.4°F10.8°C 85% 11.0 mph S17.7 kmh S -- 29.29 in991.9 mb 0.00 in0.0 mm 0.00 in0.0 mm 0.71 in18.0 mm
11:15 AM 56.0°F13.3°C 51.4°F10.8°C 85% 3.0 mph S4.8 kmh S -- 29.29 in991.9 mb 0.00 in0.0 mm 0.00 in0.0 mm 0.71 in18.0 mm
11:20 AM 56.5°F13.6°C 51.6°F10.9°C 84% Calm Calm -- 29.28 in991.5 mb 0.00 in0.0 mm 0.00 in0.0 mm 0.71 in18.0 mm
11:25 AM 56.9°F13.8°C 51.8°F11.0°C 83% 4.0 mph SSE6.4 kmh SSE 5.0 mph8.0 kmh 29.28 in991.5 mb 0.00 in0.0 mm 0.00 in0.0 mm 0.71 in18.0 mm
11:30 AM 57.4°F14.1°C 52.0°F11.1°C 82% Calm Calm -- 29.28 in991.5 mb 0.00 in0.0 mm 0.00 in0.0 mm 0.71 in18.0 mm
11:35 AM 57.7°F14.3°C 52.0°F11.1°C 81% Calm Calm -- 29.28 in991.5 mb 0.00 in0.0 mm 0.00 in0.0 mm 0.71 in18.0 mm
11:40 AM 58.2°F14.6°C 52.5°F11.4°C 81% Calm Calm -- 29.28 in991.5 mb 0.00 in0.0 mm 0.00 in0.0 mm 0.71 in18.0 mm
11:45 AM 58.6°F14.8°C 52.5°F11.4°C 80% 3.0 mph S4.8 kmh S -- 29.27 in991.2 mb 0.00 in0.0 mm 0.00 in0.0 mm 0.71 in18.0 mm
11:50 AM 59.0°F15.0°C 52.5°F11.4°C 79% Calm Calm 6.0 mph9.7 kmh 29.27 in991.2 mb 0.00 in0.0 mm 0.00 in0.0 mm 0.71 in18.0 mm
11:55 AM 59.3°F15.2°C 53.2°F11.8°C 80% Calm Calm -- 29.26 in990.9 mb 0.00 in0.0 mm 0.00 in0.0 mm 0.71 in18.0 mm
12:00 PM 59.5°F15.3°C 52.7°F11.5°C 78% 1.0 mph S1.6 kmh S -- 29.26 in990.9 mb 0.00 in0.0 mm 0.00 in0.0 mm 0.71 in18.0 mm
12:05 PM 59.5°F15.3°C 52.3°F11.3°C 77% Calm Calm -- 29.25 in990.5 mb 0.00 in0.0 mm 0.00 in0.0 mm 0.71 in18.0 mm
12:10 PM 59.6°F15.3°C 52.7°F11.5°C 78% Calm Calm -- 29.25 in990.5 mb 0.00 in0.0 mm 0.00 in0.0 mm 0.71 in18.0 mm
12:15 PM 60.1°F15.6°C 52.5°F11.4°C 76% Calm Calm 6.0 mph9.7 kmh 29.25 in990.5 mb 0.00 in0.0 mm 0.00 in0.0 mm 0.71 in18.0 mm
12:20 PM 60.5°F15.8°C 52.5°F11.4°C 75% 1.0 mph S1.6 kmh S -- 29.25 in990.5 mb 0.00 in0.0 mm 0.00 in0.0 mm 0.71 in18.0 mm
12:25 PM 60.1°F15.6°C 52.2°F11.2°C 75% Calm Calm -- 29.24 in990.2 mb 0.00 in0.0 mm 0.00 in0.0 mm 0.71 in18.0 mm
12:30 PM 60.2°F15.7°C 52.3°F11.3°C 75% Calm Calm -- 29.24 in990.2 mb 0.00 in0.0 mm 0.00 in0.0 mm 0.71 in18.0 mm
12:35 PM 60.5°F15.8°C 52.5°F11.4°C 75% Calm Calm -- 29.23 in989.8 mb 0.00 in0.0 mm 0.00 in0.0 mm 0.71 in18.0 mm
12:40 PM 60.4°F15.8°C 50.9°F10.5°C 71% Calm Calm -- 29.23 in989.8 mb 0.00 in0.0 mm 0.00 in0.0 mm 0.71 in18.0 mm
12:45 PM 60.3°F15.7°C 51.6°F10.9°C 73% Calm Calm -- 29.22 in989.5 mb 0.00 in0.0 mm 0.00 in0.0 mm 0.71 in18.0 mm
12:50 PM 60.3°F15.7°C 50.0°F10.0°C 69% Calm Calm -- 29.22 in989.5 mb 0.00 in0.0 mm 0.00 in0.0 mm 0.71 in18.0 mm
12:55 PM 60.0°F15.6°C 50.2°F10.1°C 70% Calm Calm -- 29.22 in989.5 mb 0.00 in0.0 mm 0.00 in0.0 mm 0.71 in18.0 mm
01:00 PM 59.8°F15.4°C 50.7°F10.4°C 72% Calm Calm -- 29.21 in989.2 mb 0.00 in0.0 mm 0.00 in0.0 mm 0.71 in18.0 mm
01:05 PM 59.8°F15.4°C 50.0°F10.0°C 70% Calm Calm -- 29.21 in989.2 mb 0.00 in0.0 mm 0.00 in0.0 mm 0.71 in18.0 mm
01:10 PM 60.5°F15.8°C 50.9°F10.5°C 71% Calm Calm -- 29.21 in989.2 mb 0.00 in0.0 mm 0.00 in0.0 mm 0.71 in18.0 mm
01:15 PM 61.0°F16.1°C 50.7°F10.4°C 69% Calm Calm -- 29.20 in988.8 mb 0.00 in0.0 mm 0.00 in0.0 mm 0.71 in18.0 mm
01:20 PM 60.8°F16.0°C 50.2°F10.1°C 68% Calm Calm -- 29.20 in988.8 mb 0.00 in0.0 mm 0.00 in0.0 mm 0.71 in18.0 mm
01:25 PM 61.3°F16.3°C 50.7°F10.4°C 68% Calm Calm -- 29.20 in988.8 mb 0.00 in0.0 mm 0.00 in0.0 mm 0.71 in18.0 mm
01:30 PM 62.0°F16.7°C 51.4°F10.8°C 68% Calm Calm -- 29.19 in988.5 mb 0.00 in0.0 mm 0.00 in0.0 mm 0.71 in18.0 mm
01:35 PM 61.9°F16.6°C 50.0°F10.0°C 65% Calm Calm -- 29.19 in988.5 mb 0.00 in0.0 mm 0.00 in0.0 mm 0.71 in18.0 mm
01:40 PM 61.4°F16.3°C 49.8°F9.9°C 66% Calm Calm -- 29.19 in988.5 mb 0.00 in0.0 mm 0.00 in0.0 mm 0.71 in18.0 mm
01:45 PM 61.1°F16.2°C 48.9°F9.4°C 64% Calm Calm -- 29.19 in988.5 mb 0.00 in0.0 mm 0.00 in0.0 mm 0.71 in18.0 mm
01:50 PM 60.8°F16.0°C 48.9°F9.4°C 65% Calm Calm -- 29.19 in988.5 mb 0.00 in0.0 mm 0.00 in0.0 mm 0.71 in18.0 mm
01:55 PM 60.8°F16.0°C 48.9°F9.4°C 65% Calm Calm -- 29.18 in988.1 mb 0.00 in0.0 mm 0.00 in0.0 mm 0.71 in18.0 mm
02:00 PM 60.7°F15.9°C 48.7°F9.3°C 65% Calm Calm -- 29.18 in988.1 mb 0.00 in0.0 mm 0.00 in0.0 mm 0.71 in18.0 mm
02:05 PM 61.7°F16.5°C 49.5°F9.7°C 64% Calm Calm -- 29.18 in988.1 mb 0.00 in0.0 mm 0.00 in0.0 mm 0.71 in18.0 mm
02:10 PM 61.4°F16.3°C 48.6°F9.2°C 63% Calm Calm -- 29.18 in988.1 mb 0.00 in0.0 mm 0.00 in0.0 mm 0.71 in18.0 mm
02:15 PM 61.4°F16.3°C 48.6°F9.2°C 63% Calm Calm -- 29.18 in988.1 mb 0.00 in0.0 mm 0.00 in0.0 mm 0.71 in18.0 mm
02:20 PM 61.3°F16.3°C 49.1°F9.5°C 64% Calm Calm -- 29.18 in988.1 mb 0.00 in0.0 mm 0.00 in0.0 mm 0.71 in18.0 mm
02:25 PM 61.3°F16.3°C 48.6°F9.2°C 63% Calm Calm -- 29.18 in988.1 mb 0.00 in0.0 mm 0.00 in0.0 mm 0.71 in18.0 mm
02:30 PM 61.0°F16.1°C 47.5°F8.6°C 61% Calm Calm -- 29.18 in988.1 mb 0.00 in0.0 mm 0.00 in0.0 mm 0.71 in18.0 mm
02:35 PM 60.8°F16.0°C 47.3°F8.5°C 61% Calm Calm -- 29.18 in988.1 mb 0.00 in0.0 mm 0.00 in0.0 mm 0.71 in18.0 mm
02:40 PM 60.6°F15.9°C 46.6°F8.1°C 60% Calm Calm -- 29.18 in988.1 mb 0.00 in0.0 mm 0.00 in0.0 mm 0.71 in18.0 mm
02:45 PM 60.4°F15.8°C 46.4°F8.0°C 60% Calm Calm -- 29.18 in988.1 mb 0.00 in0.0 mm 0.00 in0.0 mm 0.71 in18.0 mm
02:50 PM 60.3°F15.7°C 45.9°F7.7°C 59% Calm Calm -- 29.18 in988.1 mb 0.00 in0.0 mm 0.00 in0.0 mm 0.71 in18.0 mm
02:55 PM 60.2°F15.7°C 46.4°F8.0°C 60% Calm Calm -- 29.18 in988.1 mb 0.00 in0.0 mm 0.00 in0.0 mm 0.71 in18.0 mm
03:00 PM 60.2°F15.7°C 46.8°F8.2°C 61% Calm Calm -- 29.18 in988.1 mb 0.00 in0.0 mm 0.00 in0.0 mm 0.71 in18.0 mm
03:05 PM 60.2°F15.7°C 47.1°F8.4°C 62% Calm Calm -- 29.18 in988.1 mb 0.00 in0.0 mm 0.00 in0.0 mm 0.71 in18.0 mm
03:10 PM 60.4°F15.8°C 47.3°F8.5°C 62% Calm Calm -- 29.18 in988.1 mb 0.00 in0.0 mm 0.00 in0.0 mm 0.71 in18.0 mm
03:15 PM 60.3°F15.7°C 46.8°F8.2°C 61% Calm Calm -- 29.18 in988.1 mb 0.00 in0.0 mm 0.00 in0.0 mm 0.71 in18.0 mm
03:20 PM 60.1°F15.6°C 46.9°F8.3°C 62% Calm Calm -- 29.18 in988.1 mb 0.00 in0.0 mm 0.00 in0.0 mm 0.71 in18.0 mm
03:25 PM 59.9°F15.5°C 47.3°F8.5°C 63% Calm Calm -- 29.18 in988.1 mb 0.00 in0.0 mm 0.00 in0.0 mm 0.71 in18.0 mm
03:30 PM 59.7°F15.4°C 47.1°F8.4°C 63% Calm Calm -- 29.18 in988.1 mb 0.00 in0.0 mm 0.00 in0.0 mm 0.71 in18.0 mm
03:35 PM 59.6°F15.3°C 47.3°F8.5°C 64% Calm Calm -- 29.18 in988.1 mb 0.00 in0.0 mm 0.00 in0.0 mm 0.71 in18.0 mm
03:40 PM 59.5°F15.3°C 47.3°F8.5°C 64% Calm Calm -- 29.18 in988.1 mb 0.00 in0.0 mm 0.00 in0.0 mm 0.71 in18.0 mm
03:45 PM 59.4°F15.2°C 46.8°F8.2°C 63% Calm Calm -- 29.19 in988.5 mb 0.00 in0.0 mm 0.00 in0.0 mm 0.71 in18.0 mm
03:50 PM 59.3°F15.2°C 46.8°F8.2°C 63% Calm Calm -- 29.19 in988.5 mb 0.00 in0.0 mm 0.00 in0.0 mm 0.71 in18.0 mm
03:55 PM 59.2°F15.1°C 46.6°F8.1°C 63% Calm Calm -- 29.19 in988.5 mb 0.00 in0.0 mm 0.00 in0.0 mm 0.71 in18.0 mm
04:00 PM 59.1°F15.1°C 46.6°F8.1°C 63% Calm Calm -- 29.19 in988.5 mb 0.00 in0.0 mm 0.00 in0.0 mm 0.71 in18.0 mm
04:05 PM 58.9°F14.9°C 46.2°F7.9°C 63% Calm Calm -- 29.19 in988.5 mb 0.00 in0.0 mm 0.00 in0.0 mm 0.71 in18.0 mm
04:10 PM 58.7°F14.8°C 45.7°F7.6°C 62% Calm Calm -- 29.20 in988.8 mb 0.00 in0.0 mm 0.00 in0.0 mm 0.71 in18.0 mm
04:15 PM 58.5°F14.7°C 45.5°F7.5°C 62% Calm Calm -- 29.20 in988.8 mb 0.00 in0.0 mm 0.00 in0.0 mm 0.71 in18.0 mm
04:20 PM 58.3°F14.6°C 45.3°F7.4°C 62% Calm Calm -- 29.20 in988.8 mb 0.00 in0.0 mm 0.00 in0.0 mm 0.71 in18.0 mm
04:25 PM 58.1°F14.5°C 44.8°F7.1°C 61% Calm Calm -- 29.20 in988.8 mb 0.00 in0.0 mm 0.00 in0.0 mm 0.71 in18.0 mm
04:30 PM 57.8°F14.3°C 44.8°F7.1°C 62% Calm Calm -- 29.20 in988.8 mb 0.00 in0.0 mm 0.00 in0.0 mm 0.71 in18.0 mm
04:35 PM 57.6°F14.2°C 44.6°F7.0°C 62% Calm Calm -- 29.20 in988.8 mb 0.00 in0.0 mm 0.00 in0.0 mm 0.71 in18.0 mm
04:40 PM 57.4°F14.1°C 44.1°F6.7°C 61% Calm Calm -- 29.20 in988.8 mb 0.00 in0.0 mm 0.00 in0.0 mm 0.71 in18.0 mm
04:45 PM 57.3°F14.1°C 45.0°F7.2°C 63% Calm Calm -- 29.20 in988.8 mb 0.00 in0.0 mm 0.00 in0.0 mm 0.71 in18.0 mm
04:50 PM 57.1°F13.9°C 43.7°F6.5°C 61% Calm Calm -- 29.21 in989.2 mb 0.00 in0.0 mm 0.00 in0.0 mm 0.71 in18.0 mm
04:55 PM 57.0°F13.9°C 44.1°F6.7°C 62% Calm Calm -- 29.21 in989.2 mb 0.00 in0.0 mm 0.00 in0.0 mm 0.71 in18.0 mm
05:00 PM 56.9°F13.8°C 43.9°F6.6°C 62% Calm Calm -- 29.21 in989.2 mb 0.00 in0.0 mm 0.00 in0.0 mm 0.71 in18.0 mm
05:05 PM 56.7°F13.7°C 43.7°F6.5°C 62% Calm Calm -- 29.21 in989.2 mb 0.00 in0.0 mm 0.00 in0.0 mm 0.71 in18.0 mm
05:10 PM 56.6°F13.7°C 43.7°F6.5°C 62% Calm Calm -- 29.22 in989.5 mb 0.00 in0.0 mm 0.00 in0.0 mm 0.71 in18.0 mm
05:15 PM 56.5°F13.6°C 43.7°F6.5°C 62% Calm Calm -- 29.22 in989.5 mb 0.00 in0.0 mm 0.00 in0.0 mm 0.71 in18.0 mm
05:20 PM 56.4°F13.6°C 43.7°F6.5°C 62% Calm Calm -- 29.22 in989.5 mb 0.00 in0.0 mm 0.00 in0.0 mm 0.71 in18.0 mm
05:25 PM 56.4°F13.6°C 42.8°F6.0°C 60% Calm Calm -- 29.23 in989.8 mb 0.00 in0.0 mm 0.00 in0.0 mm 0.71 in18.0 mm
05:30 PM 56.3°F13.5°C 43.0°F6.1°C 61% Calm Calm -- 29.23 in989.8 mb 0.00 in0.0 mm 0.00 in0.0 mm 0.71 in18.0 mm
05:35 PM 56.1°F13.4°C 42.8°F6.0°C 61% Calm Calm -- 29.23 in989.8 mb 0.00 in0.0 mm 0.00 in0.0 mm 0.71 in18.0 mm
05:40 PM 56.0°F13.3°C 43.2°F6.2°C 62% Calm Calm -- 29.23 in989.8 mb 0.00 in0.0 mm 0.00 in0.0 mm 0.71 in18.0 mm
05:45 PM 55.8°F13.2°C 43.0°F6.1°C 62% Calm Calm -- 29.24 in990.2 mb 0.00 in0.0 mm 0.00 in0.0 mm 0.71 in18.0 mm
05:50 PM 55.5°F13.1°C 42.8°F6.0°C 62% Calm Calm -- 29.24 in990.2 mb 0.00 in0.0 mm 0.00 in0.0 mm 0.71 in18.0 mm
05:55 PM 55.2°F12.9°C 42.8°F6.0°C 63% Calm Calm -- 29.24 in990.2 mb 0.00 in0.0 mm 0.00 in0.0 mm 0.71 in18.0 mm
06:00 PM 55.0°F12.8°C 42.6°F5.9°C 63% Calm Calm -- 29.25 in990.5 mb 0.00 in0.0 mm 0.00 in0.0 mm 0.71 in18.0 mm
06:05 PM 54.8°F12.7°C 43.0°F6.1°C 64% Calm Calm -- 29.25 in990.5 mb 0.00 in0.0 mm 0.00 in0.0 mm 0.71 in18.0 mm
06:10 PM 54.6°F12.6°C 43.2°F6.2°C 65% Calm Calm -- 29.25 in990.5 mb 0.00 in0.0 mm 0.00 in0.0 mm 0.71 in18.0 mm
06:15 PM 54.4°F12.4°C 42.8°F6.0°C 65% Calm Calm -- 29.25 in990.5 mb 0.00 in0.0 mm 0.00 in0.0 mm 0.71 in18.0 mm
06:20 PM 54.1°F12.3°C 43.0°F6.1°C 66% Calm Calm -- 29.26 in990.9 mb 0.00 in0.0 mm 0.00 in0.0 mm 0.71 in18.0 mm
06:25 PM 53.9°F12.2°C 43.3°F6.3°C 67% Calm Calm -- 29.27 in991.2 mb 0.00 in0.0 mm 0.00 in0.0 mm 0.71 in18.0 mm
06:30 PM 53.8°F12.1°C 43.5°F6.4°C 68% Calm Calm 4.0 mph6.4 kmh 29.27 in991.2 mb 0.00 in0.0 mm 0.00 in0.0 mm 0.71 in18.0 mm
06:35 PM 53.5°F11.9°C 43.2°F6.2°C 68% Calm Calm -- 29.27 in991.2 mb 0.00 in0.0 mm 0.00 in0.0 mm 0.71 in18.0 mm
06:40 PM 53.2°F11.8°C 43.0°F6.1°C 68% Calm Calm -- 29.27 in991.2 mb 0.00 in0.0 mm 0.00 in0.0 mm 0.71 in18.0 mm
06:45 PM 53.0°F11.7°C 43.2°F6.2°C 69% Calm Calm -- 29.28 in991.5 mb 0.00 in0.0 mm 0.00 in0.0 mm 0.71 in18.0 mm
06:50 PM 52.8°F11.6°C 43.0°F6.1°C 69% Calm Calm -- 29.28 in991.5 mb 0.00 in0.0 mm 0.00 in0.0 mm 0.71 in18.0 mm
06:55 PM 52.7°F11.5°C 42.8°F6.0°C 69% Calm Calm -- 29.28 in991.5 mb 0.00 in0.0 mm 0.00 in0.0 mm 0.71 in18.0 mm
07:00 PM 52.6°F11.4°C 42.6°F5.9°C 69% Calm Calm -- 29.29 in991.9 mb 0.00 in0.0 mm 0.00 in0.0 mm 0.71 in18.0 mm
07:05 PM 52.4°F11.3°C 42.4°F5.8°C 69% Calm Calm -- 29.29 in991.9 mb 0.00 in0.0 mm 0.00 in0.0 mm 0.71 in18.0 mm
07:10 PM 52.2°F11.2°C 42.3°F5.7°C 69% Calm Calm -- 29.29 in991.9 mb 0.00 in0.0 mm 0.00 in0.0 mm 0.71 in18.0 mm
07:15 PM 52.0°F11.1°C 42.1°F5.6°C 69% Calm Calm -- 29.30 in992.2 mb 0.00 in0.0 mm 0.00 in0.0 mm 0.71 in18.0 mm
07:20 PM 51.5°F10.8°C 41.9°F5.5°C 70% Calm Calm 7.0 mph11.3 kmh 29.31 in992.6 mb 0.00 in0.0 mm 0.00 in0.0 mm 0.71 in18.0 mm
07:25 PM 50.8°F10.4°C 41.0°F5.0°C 69% Calm Calm -- 29.31 in992.6 mb 0.00 in0.0 mm 0.00 in0.0 mm 0.71 in18.0 mm
07:30 PM 50.3°F10.2°C 40.6°F4.8°C 69% Calm Calm -- 29.32 in992.9 mb 0.00 in0.0 mm 0.00 in0.0 mm 0.71 in18.0 mm
07:35 PM 49.9°F9.9°C 40.1°F4.5°C 69% Calm Calm -- 29.32 in992.9 mb 0.00 in0.0 mm 0.00 in0.0 mm 0.71 in18.0 mm
07:40 PM 49.5°F9.7°C 39.7°F4.3°C 69% Calm Calm -- 29.32 in992.9 mb 0.00 in0.0 mm 0.00 in0.0 mm 0.71 in18.0 mm
07:45 PM 49.3°F9.6°C 39.6°F4.2°C 69% Calm Calm -- 29.33 in993.2 mb 0.00 in0.0 mm 0.00 in0.0 mm 0.71 in18.0 mm
07:50 PM 49.0°F9.4°C 39.6°F4.2°C 70% Calm Calm -- 29.33 in993.2 mb 0.00 in0.0 mm 0.00 in0.0 mm 0.71 in18.0 mm
07:55 PM 48.9°F9.4°C 39.6°F4.2°C 70% Calm Calm -- 29.33 in993.2 mb 0.00 in0.0 mm 0.00 in0.0 mm 0.71 in18.0 mm
08:00 PM 48.7°F9.3°C 39.4°F4.1°C 70% Calm Calm -- 29.33 in993.2 mb 0.00 in0.0 mm 0.00 in0.0 mm 0.71 in18.0 mm
08:05 PM 48.7°F9.3°C 39.4°F4.1°C 70% Calm Calm -- 29.33 in993.2 mb 0.00 in0.0 mm 0.00 in0.0 mm 0.71 in18.0 mm
08:10 PM 48.6°F9.2°C 39.6°F4.2°C 71% Calm Calm -- 29.33 in993.2 mb 0.00 in0.0 mm 0.00 in0.0 mm 0.71 in18.0 mm
08:15 PM 48.5°F9.2°C 39.6°F4.2°C 71% Calm Calm -- 29.33 in993.2 mb 0.00 in0.0 mm 0.00 in0.0 mm 0.71 in18.0 mm
08:20 PM 48.5°F9.2°C 39.2°F4.0°C 70% Calm Calm -- 29.33 in993.2 mb 0.00 in0.0 mm 0.00 in0.0 mm 0.71 in18.0 mm
08:25 PM 48.5°F9.2°C 39.2°F4.0°C 70% Calm Calm -- 29.33 in993.2 mb 0.00 in0.0 mm 0.00 in0.0 mm 0.71 in18.0 mm
08:30 PM 48.6°F9.2°C 39.2°F4.0°C 70% Calm Calm -- 29.32 in992.9 mb 0.00 in0.0 mm 0.00 in0.0 mm 0.71 in18.0 mm
08:35 PM 48.7°F9.3°C 39.0°F3.9°C 69% Calm Calm -- 29.32 in992.9 mb 0.00 in0.0 mm 0.00 in0.0 mm 0.71 in18.0 mm
08:40 PM 48.7°F9.3°C 39.4°F4.1°C 70% Calm Calm -- 29.32 in992.9 mb 0.00 in0.0 mm 0.00 in0.0 mm 0.71 in18.0 mm
08:45 PM 48.7°F9.3°C 39.4°F4.1°C 70% Calm Calm -- 29.32 in992.9 mb 0.00 in0.0 mm 0.00 in0.0 mm 0.71 in18.0 mm
08:50 PM 48.6°F9.2°C 39.2°F4.0°C 70% Calm Calm -- 29.32 in992.9 mb 0.00 in0.0 mm 0.00 in0.0 mm 0.71 in18.0 mm
08:55 PM 48.7°F9.3°C 39.4°F4.1°C 70% Calm Calm -- 29.31 in992.6 mb 0.00 in0.0 mm 0.00 in0.0 mm 0.71 in18.0 mm
09:00 PM 48.6°F9.2°C 39.2°F4.0°C 70% Calm Calm -- 29.30 in992.2 mb 0.00 in0.0 mm 0.00 in0.0 mm 0.71 in18.0 mm
09:05 PM 48.7°F9.3°C 39.4°F4.1°C 70% Calm Calm -- 29.30 in992.2 mb 0.00 in0.0 mm 0.00 in0.0 mm 0.71 in18.0 mm
09:10 PM 48.9°F9.4°C 39.2°F4.0°C 69% Calm Calm -- 29.30 in992.2 mb 0.00 in0.0 mm 0.00 in0.0 mm 0.71 in18.0 mm
09:15 PM 48.9°F9.4°C 39.6°F4.2°C 70% Calm Calm -- 29.30 in992.2 mb 0.00 in0.0 mm 0.00 in0.0 mm 0.71 in18.0 mm
09:20 PM 49.0°F9.4°C 39.2°F4.0°C 69% Calm Calm -- 29.30 in992.2 mb 0.00 in0.0 mm 0.00 in0.0 mm 0.71 in18.0 mm
09:25 PM 49.1°F9.5°C 39.4°F4.1°C 69% Calm Calm -- 29.29 in991.9 mb 0.00 in0.0 mm 0.00 in0.0 mm 0.71 in18.0 mm
09:30 PM 49.1°F9.5°C 39.4°F4.1°C 69% Calm Calm -- 29.29 in991.9 mb 0.00 in0.0 mm 0.00 in0.0 mm 0.71 in18.0 mm
09:35 PM 49.1°F9.5°C 39.4°F4.1°C 69% Calm Calm -- 29.28 in991.5 mb 0.00 in0.0 mm 0.00 in0.0 mm 0.71 in18.0 mm
09:40 PM 49.1°F9.5°C 39.4°F4.1°C 69% Calm Calm -- 29.28 in991.5 mb 0.00 in0.0 mm 0.00 in0.0 mm 0.71 in18.0 mm
09:45 PM 49.1°F9.5°C 39.4°F4.1°C 69% Calm Calm -- 29.28 in991.5 mb 0.00 in0.0 mm 0.00 in0.0 mm 0.71 in18.0 mm
09:50 PM 49.1°F9.5°C 39.4°F4.1°C 69% Calm Calm -- 29.28 in991.5 mb 0.00 in0.0 mm 0.00 in0.0 mm 0.71 in18.0 mm
09:55 PM 49.1°F9.5°C 39.4°F4.1°C 69% Calm Calm -- 29.28 in991.5 mb 0.00 in0.0 mm 0.00 in0.0 mm 0.71 in18.0 mm
10:00 PM 49.0°F9.4°C 39.6°F4.2°C 70% Calm Calm -- 29.27 in991.2 mb 0.00 in0.0 mm 0.00 in0.0 mm 0.71 in18.0 mm
10:05 PM 49.0°F9.4°C 39.6°F4.2°C 70% Calm Calm -- 29.27 in991.2 mb 0.00 in0.0 mm 0.00 in0.0 mm 0.71 in18.0 mm
10:10 PM 49.1°F9.5°C 39.4°F4.1°C 69% Calm Calm -- 29.26 in990.9 mb 0.00 in0.0 mm 0.00 in0.0 mm 0.71 in18.0 mm
10:15 PM 49.1°F9.5°C 39.4°F4.1°C 69% Calm Calm -- 29.26 in990.9 mb 0.00 in0.0 mm 0.00 in0.0 mm 0.71 in18.0 mm
10:20 PM 49.0°F9.4°C 39.2°F4.0°C 69% Calm Calm -- 29.26 in990.9 mb 0.00 in0.0 mm 0.00 in0.0 mm 0.71 in18.0 mm
10:25 PM 49.1°F9.5°C 39.7°F4.3°C 70% Calm Calm -- 29.26 in990.9 mb 0.00 in0.0 mm 0.00 in0.0 mm 0.71 in18.0 mm
10:30 PM 49.1°F9.5°C 39.7°F4.3°C 70% Calm Calm -- 29.26 in990.9 mb 0.00 in0.0 mm 0.00 in0.0 mm 0.71 in18.0 mm
10:35 PM 49.1°F9.5°C 39.7°F4.3°C 70% Calm Calm -- 29.26 in990.9 mb 0.00 in0.0 mm 0.00 in0.0 mm 0.71 in18.0 mm
10:40 PM 49.3°F9.6°C 39.6°F4.2°C 69% Calm Calm -- 29.26 in990.9 mb 0.00 in0.0 mm 0.00 in0.0 mm 0.71 in18.0 mm
10:45 PM 49.4°F9.7°C 39.7°F4.3°C 69% Calm Calm -- 29.25 in990.5 mb 0.00 in0.0 mm 0.00 in0.0 mm 0.71 in18.0 mm
10:50 PM 49.6°F9.8°C 39.6°F4.2°C 68% Calm Calm -- 29.25 in990.5 mb 0.00 in0.0 mm 0.00 in0.0 mm 0.71 in18.0 mm
10:55 PM 49.7°F9.8°C 39.6°F4.2°C 68% Calm Calm -- 29.25 in990.5 mb 0.00 in0.0 mm 0.00 in0.0 mm 0.71 in18.0 mm
11:00 PM 49.8°F9.9°C 39.4°F4.1°C 67% Calm Calm -- 29.24 in990.2 mb 0.00 in0.0 mm 0.00 in0.0 mm 0.71 in18.0 mm
11:05 PM 50.0°F10.0°C 39.6°F4.2°C 67% Calm Calm -- 29.24 in990.2 mb 0.00 in0.0 mm 0.00 in0.0 mm 0.71 in18.0 mm
11:10 PM 50.3°F10.2°C 39.4°F4.1°C 66% Calm Calm -- 29.24 in990.2 mb 0.00 in0.0 mm 0.00 in0.0 mm 0.71 in18.0 mm
11:15 PM 50.4°F10.2°C 39.4°F4.1°C 66% Calm Calm -- 29.24 in990.2 mb 0.00 in0.0 mm 0.00 in0.0 mm 0.71 in18.0 mm
11:20 PM 50.7°F10.4°C 39.4°F4.1°C 65% Calm Calm -- 29.24 in990.2 mb 0.00 in0.0 mm 0.00 in0.0 mm 0.71 in18.0 mm
11:25 PM 50.8°F10.4°C 39.4°F4.1°C 65% Calm Calm -- 29.24 in990.2 mb 0.00 in0.0 mm 0.00 in0.0 mm 0.71 in18.0 mm
11:30 PM 50.9°F10.5°C 39.6°F4.2°C 65% Calm Calm -- 29.24 in990.2 mb 0.00 in0.0 mm 0.00 in0.0 mm 0.71 in18.0 mm
11:35 PM 51.0°F10.6°C 39.7°F4.3°C 65% Calm Calm -- 29.23 in989.8 mb 0.00 in0.0 mm 0.00 in0.0 mm 0.71 in18.0 mm
11:40 PM 51.1°F10.6°C 39.4°F4.1°C 64% Calm Calm -- 29.24 in990.2 mb 0.00 in0.0 mm 0.00 in0.0 mm 0.71 in18.0 mm
11:45 PM 51.3°F10.7°C 39.0°F3.9°C 63% Calm Calm -- 29.24 in990.2 mb 0.00 in0.0 mm 0.00 in0.0 mm 0.71 in18.0 mm
11:50 PM 51.4°F10.8°C 39.2°F4.0°C 63% Calm Calm -- 29.24 in990.2 mb 0.00 in0.0 mm 0.00 in0.0 mm 0.71 in18.0 mm
11:55 PM 51.5°F10.8°C 38.8°F3.8°C 62% Calm Calm -- 29.24 in990.2 mb 0.00 in0.0 mm 0.00 in0.0 mm 0.71 in18.0 mm